Time;durP1;ratioP1;P1;durP2;ratioP2;P2;SDS_P1;SDS_P2;PMS_P1;PMS_P2;Temp;Humidity;BMP_temperature;BMP_pressure;BME280_temperature;BME280_humidity;BME280_pressure;Samples;Min_cycle;Max_cycle;Signal;HPM_P1;HPM_P2
2022/11/06 00:01:57;;;;;;;26.00;15.85;;;;;;;3.37;80.71;101268.56;1711594;82;21095;-78
2022/11/06 00:04:42;;;;;;;29.35;17.17;;;;;;;3.37;80.67;101268.56;1715893;82;21034;-78
2022/11/06 00:07:27;;;;;;;25.62;16.17;;;;;;;3.35;80.59;101268.94;1704781;82;21082;-78
2022/11/06 00:10:14;;;;;;;24.40;16.10;;;;;;;3.31;80.63;101276.53;1700753;82;21075;-78
2022/11/06 00:12:59;;;;;;;27.62;16.42;;;;;;;3.31;80.65;101275.66;1704878;82;21018;-78
2022/11/06 00:15:44;;;;;;;28.15;15.05;;;;;;;3.28;80.59;101275.59;1705205;82;21099;-78
2022/11/06 00:18:29;;;;;;;30.20;16.82;;;;;;;3.25;80.63;101276.80;1699503;82;21064;-78
2022/11/06 00:21:21;;;;;;;25.23;14.98;;;;;;;3.26;80.69;101276.83;1700296;82;21060;-78
2022/11/06 00:24:08;;;;;;;25.88;14.35;;;;;;;3.26;80.66;101277.25;1700503;82;21103;-78
2022/11/06 00:26:53;;;;;;;21.25;14.85;;;;;;;3.25;80.72;101279.34;1706189;81;20918;-78
2022/11/06 00:29:38;;;;;;;31.27;15.80;;;;;;;3.26;80.73;101275.97;1702032;82;21390;-78
2022/11/06 00:32:23;;;;;;;24.47;15.00;;;;;;;3.27;80.74;101275.14;1698235;82;20969;-78
2022/11/06 00:35:09;;;;;;;20.82;14.53;;;;;;;3.24;80.59;101281.05;1696606;82;20969;-78
2022/11/06 00:37:54;;;;;;;18.45;13.53;;;;;;;3.22;80.57;101285.66;1700133;82;20929;-78
2022/11/06 00:40:39;;;;;;;26.80;16.80;;;;;;;3.20;80.63;101284.77;1689044;82;21544;-79
2022/11/06 00:43:24;;;;;;;22.27;14.58;;;;;;;3.21;80.66;101287.77;1688148;82;20927;-79
2022/11/06 00:46:11;;;;;;;24.18;15.28;;;;;;;3.20;80.68;101282.20;1709974;82;20958;-79
2022/11/06 00:48:56;;;;;;;25.05;15.65;;;;;;;3.22;80.73;101285.66;1680465;82;20954;-79
2022/11/06 00:51:41;;;;;;;26.30;15.13;;;;;;;3.23;80.79;101284.42;1690855;82;20961;-79
2022/11/06 00:54:27;;;;;;;30.27;16.55;;;;;;;3.23;80.68;101284.42;1699502;82;20921;-79
2022/11/06 00:57:11;;;;;;;22.62;14.23;;;;;;;3.24;80.73;101284.87;1701006;82;20989;-79
2022/11/06 00:59:57;;;;;;;24.40;15.08;;;;;;;3.25;80.73;101284.46;1679944;83;22163;-79
2022/11/06 01:02:42;;;;;;;22.52;13.60;;;;;;;3.25;80.71;101288.30;1680107;83;21012;-78
2022/11/06 01:05:27;;;;;;;27.02;14.47;;;;;;;3.26;80.75;101288.75;1666791;83;21096;-78
2022/11/06 01:08:12;;;;;;;26.82;14.23;;;;;;;3.27;80.76;101287.92;1669355;83;21583;-78
2022/11/06 01:10:57;;;;;;;30.15;14.75;;;;;;;3.28;80.84;101289.65;1664133;83;21052;-78
2022/11/06 01:13:44;;;;;;;19.60;9.10;;;;;;;3.30;80.87;101287.99;1594347;80;5001404;-79
2022/11/06 01:16:30;;;;;;;30.90;16.07;;;;;;;3.31;80.89;101290.59;1690499;82;21017;-79
2022/11/06 01:19:17;;;;;;;22.80;14.07;;;;;;;3.30;80.78;101291.41;1700304;83;27532;-79
2022/11/06 01:22:02;;;;;;;25.12;14.47;;;;;;;3.30;80.75;101286.72;1698576;83;21081;-79
2022/11/06 01:24:47;;;;;;;27.40;16.52;;;;;;;3.31;80.80;101287.17;1687306;83;21411;-79
2022/11/06 01:27:32;;;;;;;27.00;15.03;;;;;;;3.32;80.84;101284.65;1679882;83;21604;-78
2022/11/06 01:30:17;;;;;;;30.57;15.78;;;;;;;3.33;80.81;101281.27;1686081;83;21416;-78
2022/11/06 01:33:02;;;;;;;24.47;13.85;;;;;;;3.33;80.79;101281.68;1686112;82;21105;-78
2022/11/06 01:35:50;;;;;;;32.13;16.82;;;;;;;3.31;80.80;101280.37;1686505;83;21069;-79
2022/11/06 01:38:35;;;;;;;27.07;15.40;;;;;;;3.31;80.85;101290.59;1686087;83;21045;-78
2022/11/06 01:41:24;;;;;;;30.30;17.85;;;;;;;3.32;80.77;101286.34;1685336;83;21692;-78
2022/11/06 01:44:34;;;;;;;24.52;15.30;;;;;;;3.31;80.88;101279.50;1681905;82;21054;-78
2022/11/06 01:47:24;;;;;;;21.17;14.18;;;;;;;3.31;80.79;101281.64;1689639;83;21069;-78
2022/11/06 01:50:12;;;;;;;30.90;17.45;;;;;;;3.30;80.85;101283.75;1692043;83;21065;-78
2022/11/06 01:52:59;;;;;;;23.73;15.55;;;;;;;3.27;80.70;101283.67;1688703;83;21096;-78
2022/11/06 01:55:48;;;;;;;24.47;13.80;;;;;;;3.26;80.79;101285.78;1686478;82;21129;-78
2022/11/06 01:58:36;;;;;;;19.32;13.18;;;;;;;3.26;80.75;101284.91;1684193;83;21085;-78
2022/11/06 02:01:22;;;;;;;21.07;13.45;;;;;;;3.23;80.78;101288.67;1686864;83;21100;-78
2022/11/06 02:04:15;;;;;;;16.73;11.70;;;;;;;3.23;80.80;101287.39;1683268;82;20962;-78
2022/11/06 02:07:00;;;;;;;21.30;12.70;;;;;;;3.22;80.84;101283.97;1690188;82;21382;-78
2022/11/06 02:09:45;;;;;;;25.53;13.50;;;;;;;3.18;80.80;101278.33;1683552;83;20934;-78
2022/11/06 02:12:52;;;;;;;21.55;14.18;;;;;;;3.17;80.88;101277.02;1685153;83;20970;-78
2022/11/06 02:15:48;;;;;;;21.68;13.95;;;;;;;3.19;80.94;101278.78;1684661;83;20969;-78
2022/11/06 02:18:48;;;;;;;;;;;;;;;3.19;80.89;101275.37;1641129;85;20933;-78
2022/11/06 02:22:01;;;;;;;21.82;12.40;;;;;;;3.18;80.89;101270.67;1648314;85;20175;-78
2022/11/06 02:25:05;;;;;;;20.57;13.10;;;;;;;3.16;80.86;101271.45;1638550;85;21473;-78
2022/11/06 02:28:07;;;;;;;21.73;13.85;;;;;;;3.15;80.89;101270.59;1615919;86;20945;-78
2022/11/06 02:30:54;;;;;;;22.85;13.35;;;;;;;3.14;80.92;101265.03;1615426;86;20961;-78
2022/11/06 02:33:55;;;;;;;24.18;14.25;;;;;;;3.14;80.88;101270.14;1617446;86;21024;-78
2022/11/06 02:36:45;;;;;;;26.52;15.10;;;;;;;3.13;80.92;101265.86;1615646;86;21136;-78
2022/11/06 02:39:32;;;;;;;24.07;13.55;;;;;;;3.10;80.82;101256.01;1616081;86;21131;-78
2022/11/06 02:42:19;;;;;;;23.35;13.88;;;;;;;3.08;80.87;101260.22;1612920;86;21213;-78
2022/11/06 02:45:09;;;;;;;21.20;12.07;;;;;;;3.06;80.87;101264.01;1611160;86;21159;-78
2022/11/06 02:47:57;;;;;;;23.85;13.35;;;;;;;3.07;80.92;101275.09;1612381;86;21112;-78
2022/11/06 02:50:45;;;;;;;24.35;13.43;;;;;;;3.06;81.01;101279.34;1596133;86;321627;-78
2022/11/06 02:53:32;;;;;;;24.80;13.20;;;;;;;3.07;80.91;101275.96;1593781;88;21192;-78
2022/11/06 02:56:22;;;;;;;24.20;14.58;;;;;;;2.99;80.72;101273.21;1641821;84;20913;-78
2022/11/06 02:59:14;;;;;;;22.75;13.98;;;;;;;2.98;80.85;101280.83;1653157;84;21166;-78
2022/11/06 03:02:03;;;;;;;25.48;13.30;;;;;;;2.97;80.88;101274.00;1653845;84;20973;-78
2022/11/06 03:05:09;;;;;;;15.95;11.00;;;;;;;2.97;80.90;101276.55;1654968;84;20948;-78
2022/11/06 03:08:10;;;;;;;21.52;11.60;;;;;;;2.97;80.90;101266.33;1653204;84;20937;-78
2022/11/06 03:11:23;;;;;;;22.10;11.63;;;;;;;2.94;80.85;101273.50;1654340;84;20999;-78
2022/11/06 03:14:23;;;;;;;19.25;12.53;;;;;;;2.91;80.88;101269.59;1656740;84;20906;-78
2022/11/06 03:17:18;;;;;;;26.00;12.15;;;;;;;2.90;80.90;101268.28;1654113;84;20933;-78
2022/11/06 03:20:27;;;;;;;25.32;13.93;;;;;;;2.90;80.92;101275.94;1660711;84;21045;-78
2022/11/06 03:23:23;;;;;;;23.07;13.32;;;;;;;2.89;80.97;101276.36;1654948;84;20957;-78
2022/11/06 03:26:18;;;;;;;20.70;12.53;;;;;;;2.90;80.97;101279.36;1639195;84;20995;-78
2022/11/06 03:29:20;;;;;;;32.80;14.35;;;;;;;2.91;80.94;101277.67;1663139;83;21553;-78
2022/11/06 03:32:33;;;;;;;18.57;11.85;;;;;;;2.91;80.96;101272.56;1661917;84;20970;-78
2022/11/06 03:35:46;;;;;;;19.80;12.00;;;;;;;2.91;80.91;101278.53;1664256;82;20942;-78
2022/11/06 03:38:36;;;;;;;24.10;12.35;;;;;;;2.90;81.02;101274.25;1657662;83;20932;-78
2022/11/06 03:41:47;;;;;;;19.12;12.00;;;;;;;2.90;80.95;101278.08;1663036;83;20946;-78
2022/11/06 03:44:36;;;;;;;21.23;12.05;;;;;;;2.91;81.03;101267.45;1643855;84;20926;-78
2022/11/06 03:47:35;;;;;;;19.35;12.00;;;;;;;2.91;81.03;101266.17;1644574;84;20973;-78
2022/11/06 03:50:37;;;;;;;25.23;12.58;;;;;;;2.92;81.05;101277.70;1645908;84;21439;-78
2022/11/06 03:53:33;;;;;;;21.60;12.35;;;;;;;2.93;81.07;101268.36;1645368;84;20981;-78
2022/11/06 03:56:34;;;;;;;22.87;12.43;;;;;;;2.94;81.05;101273.92;1628978;85;21140;-78
2022/11/06 03:59:24;;;;;;;19.50;12.33;;;;;;;2.78;81.04;101249.67;1628561;86;22517;-78
2022/11/06 04:02:12;;;;;;;21.25;12.07;;;;;;;2.94;81.10;101272.23;1620115;86;21594;-78
2022/11/06 04:05:02;;;;;;;27.05;14.53;;;;;;;2.96;81.14;101270.58;1615290;86;21065;-78
2022/11/06 04:14:06;;;;;;;23.57;12.85;;;;;;;2.96;81.12;101263.33;1631940;86;21100;-78
2022/11/06 04:16:58;;;;;;;24.87;13.95;;;;;;;2.94;81.10;101261.15;1626232;86;21630;-78
2022/11/06 04:19:51;;;;;;;21.68;13.20;;;;;;;2.95;81.20;101263.73;1628997;86;21076;-78
2022/11/06 04:22:50;;;;;;;21.35;13.90;;;;;;;2.96;81.12;101265.47;1649106;85;21150;-78
2022/11/06 04:29:09;;;;;;;22.80;13.43;;;;;;;2.96;81.14;101263.33;1628646;86;21607;-78
2022/11/06 04:31:59;;;;;;;20.12;12.05;;;;;;;2.95;81.09;101263.73;1629980;86;21120;-78
2022/11/06 04:35:25;;;;;;;19.05;12.55;;;;;;;2.94;81.15;101261.15;1652872;83;21494;-78
2022/11/06 04:38:28;;;;;;;20.40;12.07;;;;;;;2.93;81.11;101265.80;1661584;84;21054;-78
2022/11/06 04:41:39;;;;;;;24.98;12.82;;;;;;;2.92;81.16;101266.63;1630805;85;21765;-78
2022/11/06 04:44:32;;;;;;;21.12;13.50;;;;;;;2.92;81.22;101262.80;1616793;86;21105;-78
2022/11/06 04:47:20;;;;;;;21.50;12.50;;;;;;;2.92;81.17;101261.52;1602815;87;21092;-78
2022/11/06 04:50:08;;;;;;;16.55;11.90;;;;;;;2.92;81.22;101257.69;1616390;86;22043;-78
2022/11/06 04:52:55;;;;;;;22.35;12.07;;;;;;;2.92;81.22;101258.55;1635480;85;21654;-78
2022/11/06 04:55:51;;;;;;;23.95;12.37;;;;;;;2.92;81.24;101264.94;1630840;84;21154;-78
2022/11/06 04:58:37;;;;;;;21.97;12.78;;;;;;;2.93;81.24;101265.80;1633546;85;21087;-78
2022/11/06 05:01:22;;;;;;;20.25;12.05;;;;;;;2.94;81.25;101263.70;1627945;85;21650;-78
2022/11/06 05:04:07;;;;;;;21.48;12.03;;;;;;;2.93;81.23;101269.63;1635519;84;21062;-78
2022/11/06 05:06:52;;;;;;;23.52;12.20;;;;;;;2.91;81.21;101264.48;1633135;85;21154;-78
2022/11/06 05:09:37;;;;;;;19.67;12.82;;;;;;;2.91;81.19;101267.45;1631726;85;21004;-78
2022/11/06 05:12:22;;;;;;;20.23;12.82;;;;;;;2.90;81.20;101271.70;1632521;84;21707;-78
2022/11/06 05:15:08;;;;;;;20.15;11.97;;;;;;;2.88;81.20;101263.55;1640134;84;21068;-78
2022/11/06 05:17:53;;;;;;;21.60;12.47;;;;;;;2.86;81.23;101260.95;1636130;84;21128;-78
2022/11/06 05:20:38;;;;;;;35.78;12.98;;;;;;;2.85;81.21;101259.22;1641628;84;21492;-78
2022/11/06 05:23:24;;;;;;;21.82;13.08;;;;;;;2.83;81.18;101252.34;1641251;84;46384;-78
2022/11/06 05:26:09;;;;;;;27.50;12.95;;;;;;;2.82;81.22;101259.55;1643452;84;21116;-78
2022/11/06 05:28:54;;;;;;;34.58;13.88;;;;;;;2.79;81.21;101250.13;1641489;84;21335;-78
2022/11/06 05:31:39;;;;;;;21.62;13.68;;;;;;;2.77;81.10;101244.11;1641653;84;21113;-78
2022/11/06 05:34:24;;;;;;;22.07;13.13;;;;;;;2.73;81.17;101246.13;1640556;84;21069;-78
2022/11/06 05:37:09;;;;;;;21.70;13.08;;;;;;;2.74;81.28;101245.31;1644692;84;21552;-78
2022/11/06 05:39:55;;;;;;;23.87;12.73;;;;;;;2.76;81.26;101243.66;1639316;84;21502;-78
2022/11/06 05:42:42;;;;;;;20.32;12.93;;;;;;;2.78;81.26;101253.50;1644041;83;22176;-78
2022/11/06 05:45:27;;;;;;;23.27;13.90;;;;;;;2.78;81.30;101252.23;1645241;84;21105;-78
2022/11/06 05:48:12;;;;;;;24.07;14.35;;;;;;;2.80;81.28;101253.13;1635696;85;21049;-78
2022/11/06 05:51:03;;;;;;;23.77;13.43;;;;;;;2.81;81.29;101258.69;1646360;84;21556;-78
2022/11/06 05:53:48;;;;;;;27.82;14.00;;;;;;;2.82;81.26;101260.83;1644309;84;21089;-78
2022/11/06 05:56:34;;;;;;;31.07;14.00;;;;;;;2.81;81.26;101264.21;1640754;84;21635;-78
2022/11/06 05:59:19;;;;;;;18.67;13.45;;;;;;;2.78;81.22;101262.85;1641223;84;21061;-78
2022/11/06 06:02:04;;;;;;;22.13;13.80;;;;;;;2.68;81.19;101264.71;1641235;85;21017;-78
2022/11/06 06:04:50;;;;;;;29.87;15.53;;;;;;;2.68;81.37;101272.38;1643817;84;21131;-78
2022/11/06 06:07:35;;;;;;;35.35;15.23;;;;;;;2.71;81.40;101272.45;1643581;84;21105;-78
2022/11/06 06:10:20;;;;;;;23.98;13.60;;;;;;;2.69;81.32;101273.69;1640225;84;21053;-78
2022/11/06 06:13:05;;;;;;;39.92;13.75;;;;;;;2.68;81.42;101277.06;1642350;84;21104;-78
2022/11/06 06:15:50;;;;;;;21.45;13.58;;;;;;;2.69;81.39;101277.52;1646551;85;21276;-78
2022/11/06 06:18:35;;;;;;;24.98;13.28;;;;;;;2.71;81.43;101277.56;1644235;84;21376;-78
2022/11/06 06:21:20;;;;;;;26.70;10.95;;;;;;;2.75;81.45;101283.20;1645776;84;21089;-78
2022/11/06 06:24:07;;;;;;;24.25;12.18;;;;;;;2.74;81.39;101281.06;1643234;84;21821;-78
2022/11/06 06:26:51;;;;;;;25.30;13.38;;;;;;;2.69;81.31;101279.20;1645525;84;20996;-78
2022/11/06 06:29:37;;;;;;;29.05;12.95;;;;;;;2.64;81.39;101287.61;1644210;84;21061;-79
2022/11/06 06:32:22;;;;;;;34.73;13.05;;;;;;;2.64;81.40;101286.33;1637110;85;21081;-79
2022/11/06 06:35:08;;;;;;;35.13;12.73;;;;;;;2.62;81.37;101285.84;1634251;85;21124;-79
2022/11/06 06:37:54;;;;;;;20.02;12.37;;;;;;;2.60;81.45;101287.07;1642763;84;27659;-79
2022/11/06 06:40:39;;;;;;;24.35;12.43;;;;;;;2.62;81.46;101290.95;1656690;84;21402;-79
2022/11/06 06:43:24;;;;;;;33.33;12.43;;;;;;;2.63;81.50;101289.70;1647012;84;21071;-79
2022/11/06 06:46:09;;;;;;;20.70;11.43;;;;;;;2.70;81.64;101294.98;1644795;84;21057;-79
2022/11/06 06:48:54;;;;;;;23.35;11.70;;;;;;;2.78;81.67;101296.91;1651156;84;21071;-79
2022/11/06 06:51:39;;;;;;;18.35;12.03;;;;;;;2.84;81.64;101298.36;1659043;84;21108;-79
2022/11/06 06:54:24;;;;;;;22.58;11.80;;;;;;;2.87;81.54;101297.16;1656055;84;21060;-78
2022/11/06 06:57:09;;;;;;;19.30;11.97;;;;;;;2.92;81.66;101301.97;1648102;84;21571;-78
2022/11/06 06:59:54;;;;;;;14.75;10.00;;;;;;;2.99;81.70;101297.89;1633103;85;21080;-78
2022/11/06 07:02:39;;;;;;;14.87;10.37;;;;;;;3.05;81.68;101297.19;1633849;85;21137;-78
2022/11/06 07:05:25;;;;;;;13.80;11.08;;;;;;;3.10;81.67;101300.72;1660301;83;21162;-78
2022/11/06 07:08:10;;;;;;;14.33;9.93;;;;;;;3.16;81.74;101297.02;1661106;84;21135;-78
2022/11/06 07:11:01;;;;;;;13.15;9.00;;;;;;;3.22;81.76;101291.64;1666657;83;21106;-78
2022/11/06 07:13:46;;;;;;;11.80;9.78;;;;;;;3.30;81.75;101293.97;1663441;83;21533;-78
2022/11/06 07:16:31;;;;;;;10.88;9.35;;;;;;;3.38;81.79;101299.27;1667357;83;21075;-78
2022/11/06 07:19:17;;;;;;;9.65;8.65;;;;;;;3.46;81.79;101302.02;1666890;83;21395;-78
2022/11/06 07:22:01;;;;;;;12.90;8.83;;;;;;;3.53;81.77;101298.77;1664149;83;21078;-78
2022/11/06 07:24:47;;;;;;;12.73;9.27;;;;;;;3.58;81.77;101299.33;1668699;83;21051;-78
2022/11/06 07:27:32;;;;;;;12.73;9.20;;;;;;;3.65;81.81;101299.89;1664745;83;21558;-78
2022/11/06 07:30:17;;;;;;;13.25;10.20;;;;;;;3.73;81.84;101299.20;1662777;83;21385;-78
2022/11/06 07:33:04;;;;;;;11.33;9.93;;;;;;;3.80;81.82;101306.19;1635852;85;21101;-78
2022/11/06 07:35:49;;;;;;;18.37;11.28;;;;;;;3.84;81.83;101301.17;1644457;84;21076;-78
2022/11/06 07:38:36;;;;;;;15.58;12.53;;;;;;;3.89;81.84;101304.70;1650335;85;21096;-78
2022/11/06 07:41:20;;;;;;;23.70;11.83;;;;;;;3.97;81.93;101304.45;1648044;85;24759;-78
2022/11/06 07:44:06;;;;;;;24.05;12.70;;;;;;;4.08;81.95;101307.66;1646372;84;21041;-78
2022/11/06 07:46:51;;;;;;;21.68;13.95;;;;;;;4.16;81.98;101304.41;1649105;85;21627;-78
2022/11/06 07:49:36;;;;;;;16.97;12.85;;;;;;;4.22;81.99;101301.11;1642945;84;21108;-78
2022/11/06 07:52:21;;;;;;;16.97;13.55;;;;;;;4.32;82.02;101299.19;1647090;84;21176;-78
2022/11/06 07:55:07;;;;;;;23.50;13.50;;;;;;;4.40;82.01;101292.95;1645209;85;21105;-78
2022/11/06 07:57:52;;;;;;;13.93;11.55;;;;;;;4.50;82.07;101304.69;1650978;83;20933;-78
2022/11/06 08:00:37;;;;;;;16.35;12.20;;;;;;;4.58;82.09;101295.45;1647081;85;20953;-78
2022/11/06 08:03:23;;;;;;;15.23;12.35;;;;;;;4.69;82.09;101298.61;1650456;84;21017;-78
2022/11/06 08:06:08;;;;;;;12.93;10.65;;;;;;;4.79;82.15;101300.09;1647909;84;20941;-78
2022/11/06 08:08:53;;;;;;;15.08;11.43;;;;;;;4.90;82.19;101302.43;1645726;85;21096;-78
2022/11/06 08:11:38;;;;;;;14.73;12.07;;;;;;;5.01;82.17;101300.48;1648637;84;20985;-78
2022/11/06 08:14:23;;;;;;;15.88;11.97;;;;;;;5.08;82.15;101302.31;1644346;85;21565;-80
2022/11/06 08:17:08;;;;;;;16.73;11.68;;;;;;;5.19;82.26;101302.95;1648913;85;21045;-80
2022/11/06 08:19:53;;;;;;;15.30;12.35;;;;;;;5.31;82.32;101299.69;1645209;85;20933;-80
2022/11/06 08:22:37;;;;;;;16.23;13.45;;;;;;;5.46;82.36;101304.20;1649326;84;20941;-79
2022/11/06 08:25:22;;;;;;;17.98;13.40;;;;;;;5.58;82.34;101302.70;1645787;85;21021;-79
2022/11/06 08:28:09;;;;;;;20.72;15.13;;;;;;;5.67;82.29;101299.41;1645362;84;21113;-79
2022/11/06 08:30:54;;;;;;;19.50;15.13;;;;;;;5.78;82.34;101296.97;1651137;84;21016;-77
2022/11/06 08:33:40;;;;;;;21.73;14.83;;;;;;;5.89;82.35;101300.59;1645256;84;21080;-77
2022/11/06 08:36:25;;;;;;;23.60;15.83;;;;;;;5.95;82.35;101298.97;1647730;85;21572;-77
2022/11/06 08:39:12;;;;;;;23.60;15.45;;;;;;;6.02;82.40;101290.94;1652465;84;21436;-77
2022/11/06 08:41:57;;;;;;;20.32;15.65;;;;;;;6.07;82.42;101293.14;1650727;84;20997;-77
2022/11/06 08:44:42;;;;;;;21.48;16.25;;;;;;;6.14;82.45;101295.37;1646962;84;21025;-77
2022/11/06 08:47:27;;;;;;;23.40;17.12;;;;;;;6.17;82.46;101296.69;1649842;84;21555;-77
2022/11/06 08:50:13;;;;;;;23.18;16.00;;;;;;;6.21;82.60;101292.90;1648603;84;21112;-77
2022/11/06 08:53:03;;;;;;;22.32;15.08;;;;;;;6.24;82.58;101295.89;1657585;84;21120;-78
2022/11/06 08:55:48;;;;;;;25.50;16.10;;;;;;;6.24;82.62;101295.89;1649359;84;21090;-78
2022/11/06 08:58:33;;;;;;;23.52;15.20;;;;;;;6.23;82.68;101300.20;1650735;84;21044;-78
2022/11/06 09:01:18;;;;;;;20.57;14.53;;;;;;;6.25;82.74;101298.48;1651506;84;21580;-78
2022/11/06 09:04:04;;;;;;;18.40;13.08;;;;;;;6.27;82.79;101293.37;1655640;84;21496;-78
2022/11/06 09:06:49;;;;;;;;;;;;;;;6.30;82.90;101299.41;1649236;84;21543;-78
2022/11/06 09:09:34;;;;;;;21.82;12.13;;;;;;;6.34;83.06;101293.88;1646172;84;20211;-78
2022/11/06 09:12:19;;;;;;;22.27;13.53;;;;;;;6.38;83.02;101290.51;1644880;86;21049;-78
2022/11/06 09:15:06;;;;;;;17.23;13.83;;;;;;;6.43;83.04;101286.29;1647063;84;21528;-78
2022/11/06 09:17:51;;;;;;;;;;;;;;;6.49;83.15;101281.64;1652741;84;21658;-78
2022/11/06 09:20:36;;;;;;;26.55;13.32;;;;;;;6.55;83.30;101278.72;1648746;84;20509;-78
2022/11/06 09:23:22;;;;;;;20.70;13.62;;;;;;;6.61;83.21;101276.64;1647932;84;21099;-78
2022/11/06 09:26:07;;;;;;;20.17;12.50;;;;;;;6.69;83.30;101269.02;1668693;84;21091;-78
2022/11/06 09:28:52;;;;;;;20.72;12.60;;;;;;;6.77;83.32;101264.36;1637052;84;21395;-78
2022/11/06 09:31:37;;;;;;;17.52;12.93;;;;;;;6.85;83.35;101261.87;1649788;84;21073;-78
2022/11/06 09:34:22;;;;;;;16.12;11.12;;;;;;;6.96;83.40;101270.55;1646690;84;21071;-78
2022/11/06 09:37:07;;;;;;;19.00;12.25;;;;;;;7.04;83.37;101265.05;1658732;84;21069;-78
2022/11/06 09:39:52;;;;;;;16.97;12.80;;;;;;;7.12;83.38;101267.27;1656796;84;21053;-78
2022/11/06 09:43:36;;;;;;;21.97;12.73;;;;;;;7.21;83.39;101265.20;1660347;84;21068;-78
2022/11/06 09:46:28;;;;;;;17.95;12.00;;;;;;;7.27;83.41;101258.39;1662025;84;21413;-78
2022/11/06 09:49:36;;;;;;;17.65;11.18;;;;;;;7.39;83.47;101255.44;1660108;84;21122;-78
2022/11/06 09:52:41;;;;;;;16.42;10.93;;;;;;;7.48;83.51;101256.38;1655449;84;21064;-78
2022/11/06 09:55:32;;;;;;;15.58;10.28;;;;;;;7.57;83.52;101257.72;1653558;84;21060;-78
2022/11/06 09:58:34;;;;;;;19.90;11.22;;;;;;;7.65;83.51;101253.91;1649083;84;20933;-78
2022/11/06 10:01:29;;;;;;;16.48;10.28;;;;;;;7.71;83.50;101255.23;1651206;84;21927;-78
2022/11/06 10:04:28;;;;;;;14.55;9.50;;;;;;;7.78;83.50;101251.84;1651864;84;20937;-78
2022/11/06 10:07:33;;;;;;;16.80;10.18;;;;;;;7.85;83.50;101244.56;1668352;83;20955;-78
2022/11/06 10:10:22;;;;;;;16.12;9.30;;;;;;;7.92;83.60;101236.44;1662984;83;21045;-78
2022/11/06 10:13:30;;;;;;;17.82;8.53;;;;;;;8.02;83.63;101234.34;1670509;83;20939;-78
2022/11/06 10:16:44;;;;;;;12.53;8.28;;;;;;;8.10;83.58;101231.80;1649820;84;21524;-78
2022/11/06 10:19:49;;;;;;;11.20;7.95;;;;;;;8.14;83.51;101225.38;1641288;85;20946;-77
2022/11/06 10:22:47;;;;;;;10.95;8.35;;;;;;;8.21;83.59;101226.27;1653264;84;20937;-77
2022/11/06 10:25:46;;;;;;;13.80;7.95;;;;;;;8.29;83.59;101228.02;1640846;85;21371;-76
2022/11/06 10:28:50;;;;;;;15.75;8.13;;;;;;;8.36;83.54;101234.05;1658243;84;20924;-81
2022/11/06 10:31:56;;;;;;;9.53;7.25;;;;;;;8.42;83.58;101217.31;1632705;85;20989;-78
2022/11/06 10:34:55;;;;;;;12.10;7.53;;;;;;;8.49;83.53;101213.90;1639565;85;21111;-78
2022/11/06 10:37:45;;;;;;;11.83;7.08;;;;;;;8.52;83.45;101206.60;1659473;83;21142;-78
2022/11/06 10:40:33;;;;;;;9.30;6.37;;;;;;;8.57;83.53;101204.89;1660862;83;21042;-80
2022/11/06 10:43:34;;;;;;;13.35;7.62;;;;;;;8.62;83.49;101201.47;1654373;84;21124;-80
2022/11/06 10:46:31;;;;;;;10.78;7.25;;;;;;;8.69;83.48;101196.31;1654339;84;21682;-80
2022/11/06 10:49:25;;;;;;;;;;;;;;;8.73;83.49;101181.28;1654789;84;21158;-80
2022/11/06 10:52:45;;;;;;;8.78;6.40;;;;;;;8.78;83.52;101186.02;1657239;84;20131;-79
2022/11/06 10:55:57;;;;;;;9.98;6.75;;;;;;;8.84;83.60;101188.56;1652065;84;21124;-80
2022/11/06 10:58:42;;;;;;;9.85;6.62;;;;;;;8.90;83.50;101180.83;1655184;83;21141;-79
2022/11/06 11:01:27;;;;;;;8.80;7.37;;;;;;;8.96;83.50;101170.52;1656662;84;21558;-79
2022/11/06 11:04:12;;;;;;;9.30;6.20;;;;;;;9.01;83.58;101166.64;1653379;84;21499;-80
2022/11/06 11:07:14;;;;;;;9.38;6.15;;;;;;;9.07;83.50;101161.05;1655641;84;21115;-80
2022/11/06 11:10:03;;;;;;;6.37;5.53;;;;;;;9.14;83.55;101159.32;1653502;84;21143;-79
2022/11/06 11:12:53;;;;;;;12.88;5.35;;;;;;;9.18;83.38;101158.02;1655969;84;21077;-78
2022/11/06 11:15:45;;;;;;;9.23;6.05;;;;;;;9.21;83.32;101152.00;1650856;84;21064;-80
2022/11/06 11:18:30;;;;;;;10.58;6.60;;;;;;;9.24;83.36;101148.98;1662770;84;21103;-80
2022/11/06 11:21:26;;;;;;;8.38;5.90;;;;;;;9.26;83.34;101142.09;1660125;83;21390;-80
2022/11/06 11:24:11;;;;;;;8.30;5.62;;;;;;;9.31;83.38;101146.39;1680561;83;21069;-80
2022/11/06 11:27:01;;;;;;;6.80;5.40;;;;;;;9.33;83.31;101136.49;1657810;83;21022;-80
2022/11/06 11:29:49;;;;;;;12.35;5.80;;;;;;;9.36;83.32;101134.34;1656144;84;20930;-80
2022/11/06 11:32:33;;;;;;;7.97;5.87;;;;;;;9.39;83.30;101127.41;1635367;85;20933;-78
2022/11/06 11:35:28;;;;;;;11.48;5.97;;;;;;;9.43;83.17;101125.68;1631987;85;20963;-78
2022/11/06 11:38:15;;;;;;;10.60;5.35;;;;;;;9.43;83.15;101121.37;1656821;83;20932;-78
2022/11/06 11:41:20;;;;;;;6.87;5.70;;;;;;;9.45;83.19;101120.94;1633480;84;21117;-81
2022/11/06 11:44:18;;;;;;;8.90;6.17;;;;;;;9.48;83.07;101120.08;1646313;84;21526;-79
2022/11/06 11:47:08;;;;;;;9.78;5.28;;;;;;;9.49;83.09;101110.17;1645079;84;21064;-79
2022/11/06 11:49:53;;;;;;;8.08;5.55;;;;;;;9.50;83.08;101114.47;1659008;83;21003;-80
2022/11/06 11:52:38;;;;;;;11.28;5.67;;;;;;;9.51;83.08;101108.02;1658300;83;21100;-79
2022/11/06 11:55:27;;;;;;;6.80;5.30;;;;;;;9.55;83.02;101115.31;1680548;83;21532;-80
2022/11/06 11:58:23;;;;;;;10.38;5.37;;;;;;;9.56;82.99;101108.00;1648878;84;20985;-79
2022/11/06 12:01:08;;;;;;;8.75;5.33;;;;;;;9.58;83.01;101109.70;1635670;85;23626;-79
2022/11/06 12:03:53;;;;;;;13.08;5.35;;;;;;;9.60;82.96;101109.70;1655235;83;21069;-80
2022/11/06 12:06:55;;;;;;;9.90;5.40;;;;;;;9.60;82.95;101098.94;1667304;83;21101;-79
2022/11/06 12:09:43;;;;;;;9.85;5.30;;;;;;;9.62;82.93;101101.52;1652379;84;21532;-80
2022/11/06 12:12:32;;;;;;;10.55;5.87;;;;;;;9.60;82.88;101099.38;1649180;84;20998;-78
2022/11/06 12:15:22;;;;;;;8.65;5.60;;;;;;;9.63;82.93;101086.45;1655734;84;21100;-78
2022/11/06 12:18:12;;;;;;;11.97;5.60;;;;;;;9.66;82.90;101098.49;1651849;84;22369;-79
2022/11/06 12:21:18;;;;;;;7.62;5.65;;;;;;;9.67;82.93;101101.06;1659484;84;21073;-79
2022/11/06 12:24:17;;;;;;;7.75;6.00;;;;;;;9.69;82.87;101102.35;1651666;84;21076;-79
2022/11/06 12:27:13;;;;;;;7.12;6.08;;;;;;;9.70;82.79;101097.61;1657019;84;21092;-79
2022/11/06 12:30:14;;;;;;;12.63;6.72;;;;;;;9.69;82.78;101099.34;1654562;84;21575;-79
2022/11/06 12:33:20;;;;;;;10.32;5.83;;;;;;;9.71;82.76;101092.44;1652814;84;21112;-79
2022/11/06 12:36:07;;;;;;;7.97;5.53;;;;;;;9.73;82.75;101082.96;1656537;84;21123;-79
2022/11/06 12:39:01;;;;;;;8.15;5.37;;;;;;;9.74;82.70;101088.55;1635372;84;21453;-79
2022/11/06 12:41:49;;;;;;;7.92;6.05;;;;;;;9.74;82.65;101086.41;1653703;84;21536;-79
2022/11/06 12:44:34;;;;;;;10.20;5.45;;;;;;;9.73;82.61;101088.13;1661212;84;21423;-79
2022/11/06 12:47:30;;;;;;;7.53;5.55;;;;;;;9.72;82.59;101086.41;1653225;84;21420;-79
2022/11/06 12:50:32;;;;;;;9.48;5.17;;;;;;;9.74;82.60;101091.57;1657869;84;21167;-79
2022/11/06 12:53:31;;;;;;;8.03;5.55;;;;;;;9.74;82.56;101087.27;1653113;84;20953;-79
2022/11/06 12:56:46;;;;;;;12.78;6.80;;;;;;;9.74;82.54;101088.55;1658428;84;20961;-79
2022/11/06 13:00:06;;;;;;;7.35;6.20;;;;;;;9.74;82.49;101083.39;1658680;84;20917;-79
2022/11/06 13:03:36;;;;;;;10.18;5.80;;;;;;;9.73;82.45;101077.80;1651128;84;21151;-79
2022/11/06 13:06:35;;;;;;;13.18;6.50;;;;;;;9.73;82.46;101080.81;1652946;84;21147;-79
2022/11/06 13:09:28;;;;;;;10.88;6.15;;;;;;;9.73;82.41;101088.56;1655388;84;22308;-79
2022/11/06 13:12:31;;;;;;;11.68;5.92;;;;;;;9.73;82.41;101082.11;1657332;84;21429;-79
2022/11/06 13:15:27;;;;;;;9.05;5.95;;;;;;;9.73;82.35;101087.27;1638548;83;21550;-79
2022/11/06 13:18:26;;;;;;;9.48;6.45;;;;;;;9.71;82.33;101078.23;1626320;84;21679;-79
2022/11/06 13:21:37;;;;;;;13.80;6.50;;;;;;;9.72;82.28;101079.09;1666009;83;21186;-79